Time,TemperatureF,DewpointF,PressureIn,WindDirection,WindDirectionDegrees,WindSpeedMPH,WindSpeedGustMPH,Humidity,HourlyPrecipIn,Conditions,Clouds,dailyrainin,SoftwareType,DateUTC
2013-06-23 14:30:00,77.0,74.2,30.31,WNW,292,0.0,2.0,91,0.01,,SCT250,0.01,VWS V14.01,2013-06-23 18:30:00,
2013-06-23 14:53:00,79.2,70.2,30.30,NW,322,0.0,0.0,74,0.01,,SCT250,0.01,VWS V14.01,2013-06-23 18:53:00,
2013-06-23 14:55:00,79.4,70.8,30.30,NW,322,0.0,1.0,75,0.01,,SCT250,0.01,VWS V14.01,2013-06-23 18:55:00,
2013-06-23 15:00:00,79.6,71.4,30.30,NW,322,0.0,1.0,76,0.01,,SCT250,0.01,VWS V14.01,2013-06-23 19:00:00,
2013-06-23 15:02:00,79.6,70.6,30.30,NW,322,0.0,1.0,74,0.01,,BKN200,0.01,VWS V14.01,2013-06-23 19:02:00,
2013-06-23 15:08:00,79.9,69.2,30.30,NW,322,0.0,1.0,70,0.01,,BKN200,0.01,VWS V14.01,2013-06-23 19:08:00,
2013-06-23 15:14:00,80.3,70.1,30.29,NW,322,0.0,1.0,71,0.00,,BKN200,0.01,VWS V14.01,2013-06-23 19:14:00,
2013-06-23 15:20:00,80.9,70.2,30.29,NW,322,0.0,1.0,70,0.00,,BKN200,0.01,VWS V14.01,2013-06-23 19:20:00,
2013-06-23 15:25:00,81.2,70.5,30.29,NW,322,0.0,0.0,70,0.00,,BKN200,0.01,VWS V14.01,2013-06-23 19:25:00,
2013-06-23 15:31:00,81.4,71.5,30.28,NW,322,0.0,0.0,72,0.00,,BKN200,0.01,VWS V14.01,2013-06-23 19:31:00,
2013-06-23 15:37:00,81.4,71.1,30.28,NW,322,0.0,0.0,71,0.00,,BKN200,0.01,VWS V14.01,2013-06-23 19:37:00,
2013-06-23 15:43:00,81.6,70.9,30.28,NW,322,0.0,1.0,70,0.00,,BKN200,0.01,VWS V14.01,2013-06-23 19:43:00,
2013-06-23 15:49:00,81.8,71.1,30.27,NW,322,0.0,1.0,70,0.00,,BKN200,0.01,VWS V14.01,2013-06-23 19:49:00,
2013-06-23 15:55:00,82.6,71.8,30.27,NW,322,0.0,1.0,70,0.00,,BKN200,0.01,VWS V14.01,2013-06-23 19:55:00,
2013-06-23 16:01:00,83.2,72.4,30.27,NW,321,0.0,0.0,70,0.00,,BKN200,0.01,VWS V14.01,2013-06-23 20:01:00,
2013-06-23 16:07:00,83.4,72.6,30.27,NW,321,0.0,1.0,70,0.00,,BKN200,0.01,VWS V14.01,2013-06-23 20:07:00,
2013-06-23 16:13:00,84.0,72.7,30.27,NW,321,0.0,1.0,69,0.00,,BKN200,0.01,VWS V14.01,2013-06-23 20:13:00,
2013-06-23 16:19:00,84.5,73.2,30.26,NW,321,0.0,1.0,69,0.00,,BKN200,0.01,VWS V14.01,2013-06-23 20:19:00,
2013-06-23 16:25:00,84.9,72.3,30.26,NW,321,0.0,1.0,66,0.00,,BKN200,0.01,VWS V14.01,2013-06-23 20:25:00,
2013-06-23 16:31:00,84.7,72.5,30.26,NW,321,0.0,1.0,67,0.00,,BKN200,0.01,VWS V14.01,2013-06-23 20:31:00,
2013-06-23 16:37:00,84.1,71.5,30.26,NW,321,0.0,1.0,66,0.00,,BKN200,0.01,VWS V14.01,2013-06-23 20:37:00,
2013-06-23 16:43:00,84.0,71.9,30.26,North,0,0.0,1.0,67,0.00,,BKN200,0.01,VWS V14.01,2013-06-23 20:43:00,
2013-06-23 16:49:00,84.1,72.0,30.27,North,0,0.0,1.0,67,0.00,,BKN200,0.01,VWS V14.01,2013-06-23 20:49:00,
2013-06-23 16:55:00,84.3,71.7,30.27,North,0,0.0,1.0,66,0.00,,BKN200,0.01,VWS V14.01,2013-06-23 20:55:00,
2013-06-23 17:02:00,84.1,72.4,30.26,North,0,0.0,0.0,68,0.00,,BKN200,0.01,VWS V14.01,2013-06-23 21:02:00,
2013-06-23 17:08:00,83.4,72.6,30.26,North,0,0.0,0.0,70,0.00,,BKN200,0.01,VWS V14.01,2013-06-23 21:08:00,
2013-06-23 17:14:00,82.8,72.9,30.26,North,0,0.0,0.0,72,0.00,,BKN200,0.01,VWS V14.01,2013-06-23 21:14:00,
2013-06-23 17:20:00,82.2,72.7,30.26,North,0,0.0,0.0,73,0.00,,BKN200,0.01,VWS V14.01,2013-06-23 21:20:00,
2013-06-23 17:26:00,81.8,72.7,30.26,North,0,0.0,0.0,74,0.00,,BKN200,0.01,VWS V14.01,2013-06-23 21:26:00,
2013-06-23 17:32:00,81.6,72.9,30.27,North,0,0.0,0.0,75,0.00,,BKN200,0.01,VWS V14.01,2013-06-23 21:32:00,
2013-06-23 17:38:00,81.2,72.9,30.27,North,0,0.0,0.0,76,0.00,,BKN200,0.01,VWS V14.01,2013-06-23 21:38:00,
2013-06-23 17:44:00,81.1,72.8,30.26,North,0,0.0,0.0,76,0.00,,BKN200,0.01,VWS V14.01,2013-06-23 21:44:00,
2013-06-23 17:49:00,80.7,73.2,30.26,North,0,0.0,0.0,78,0.00,,BKN200,0.01,VWS V14.01,2013-06-23 21:49:00,
2013-06-23 17:56:00,80.3,73.2,30.26,North,0,0.0,0.0,79,0.00,,BKN200,0.01,VWS V14.01,2013-06-23 21:56:00,
2013-06-23 18:02:00,80.1,73.0,30.26,North,0,0.0,0.0,79,0.00,,BKN250,0.01,VWS V14.01,2013-06-23 22:02:00,
2013-06-23 18:08:00,80.3,72.4,30.26,North,0,0.0,0.0,77,0.00,,BKN250,0.01,VWS V14.01,2013-06-23 22:08:00,
2013-06-23 18:14:00,80.5,71.8,30.26,North,0,0.0,1.0,75,0.00,,BKN250,0.01,VWS V14.01,2013-06-23 22:14:00,
2013-06-23 18:20:00,80.7,72.4,30.26,North,0,0.0,1.0,76,0.00,,BKN250,0.01,VWS V14.01,2013-06-23 22:20:00,
2013-06-23 18:25:00,80.5,71.5,30.26,North,0,0.0,0.0,74,0.00,,BKN250,0.01,VWS V14.01,2013-06-23 22:25:00,
2013-06-23 18:31:00,80.3,72.1,30.27,North,0,0.0,0.0,76,0.00,,BKN250,0.01,VWS V14.01,2013-06-23 22:31:00,
2013-06-23 18:37:00,80.1,72.2,30.27,North,0,0.0,0.0,77,0.00,,BKN250,0.01,VWS V14.01,2013-06-23 22:37:00,
2013-06-23 18:43:00,79.8,71.6,30.27,North,0,0.0,0.0,76,0.00,,BKN250,0.01,VWS V14.01,2013-06-23 22:43:00,
2013-06-23 18:49:00,79.6,72.1,30.27,North,0,0.0,0.0,78,0.00,,BKN250,0.01,VWS V14.01,2013-06-23 22:49:00,
2013-06-23 18:55:00,79.6,72.5,30.27,North,0,0.0,0.0,79,0.00,,BKN250,0.01,VWS V14.01,2013-06-23 22:55:00,
2013-06-23 19:01:00,79.4,71.9,30.27,North,0,0.0,0.0,78,0.00,,BKN250,0.01,VWS V14.01,2013-06-23 23:01:00,
2013-06-23 19:07:00,79.4,72.3,30.27,North,0,0.0,0.0,79,0.00,,BKN250,0.01,VWS V14.01,2013-06-23 23:07:00,
2013-06-23 19:13:00,79.2,72.1,30.27,North,0,0.0,0.0,79,0.00,,BKN250,0.01,VWS V14.01,2013-06-23 23:13:00,
2013-06-23 19:19:00,79.2,72.1,30.27,North,0,0.0,0.0,79,0.00,,BKN250,0.01,VWS V14.01,2013-06-23 23:19:00,
2013-06-23 19:25:00,79.2,72.1,30.27,North,0,0.0,0.0,79,0.00,,BKN250,0.01,VWS V14.01,2013-06-23 23:25:00,
2013-06-23 19:31:00,79.4,72.3,30.27,North,0,0.0,0.0,79,0.00,,BKN250,0.01,VWS V14.01,2013-06-23 23:31:00,
2013-06-23 19:37:00,79.2,72.5,30.27,North,0,0.0,0.0,80,0.00,,BKN250,0.01,VWS V14.01,2013-06-23 23:37:00,
2013-06-23 19:43:00,79.2,72.9,30.27,North,0,0.0,0.0,81,0.00,,BKN250,0.01,VWS V14.01,2013-06-23 23:43:00,
2013-06-23 19:49:00,78.8,72.1,30.27,NW,314,0.0,2.0,80,0.00,,BKN250,0.01,VWS V14.01,2013-06-23 23:49:00,
2013-06-23 19:55:00,78.8,72.1,30.27,NNW,327,0.0,1.0,80,0.00,,BKN250,0.01,VWS V14.01,2013-06-23 23:55:00,
2013-06-23 20:01:00,78.8,71.7,30.29,NNW,327,0.0,1.0,79,0.00,,BKN250,0.01,VWS V14.01,2013-06-24 00:01:00,
2013-06-23 20:07:00,78.6,71.9,30.29,NNW,327,0.0,1.0,80,0.00,,BKN250,0.01,VWS V14.01,2013-06-24 00:07:00,
2013-06-23 20:13:00,78.6,71.9,30.29,NNW,327,0.0,0.0,80,0.00,,BKN250,0.01,VWS V14.01,2013-06-24 00:13:00,
2013-06-23 20:19:00,78.5,71.8,30.28,NNW,327,0.0,1.0,80,0.00,,BKN250,0.01,VWS V14.01,2013-06-24 00:19:00,
2013-06-23 20:25:00,78.3,72.0,30.28,NNW,327,0.0,0.0,81,0.00,,BKN250,0.01,VWS V14.01,2013-06-24 00:25:00,
2013-06-23 20:31:00,78.1,72.2,30.27,NNW,327,0.0,0.0,82,0.00,,BKN250,0.01,VWS V14.01,2013-06-24 00:31:00,
2013-06-23 20:37:00,77.9,72.0,30.27,NNW,327,0.0,0.0,82,0.00,,BKN250,0.01,VWS V14.01,2013-06-24 00:37:00,
2013-06-23 20:43:00,77.7,72.1,30.27,NNW,327,0.0,0.0,83,0.00,,BKN250,0.01,VWS V14.01,2013-06-24 00:43:00,
2013-06-23 20:49:00,77.6,72.0,30.27,NNW,327,0.0,1.0,83,0.00,,BKN250,0.01,VWS V14.01,2013-06-24 00:49:00,
2013-06-23 20:56:00,77.4,71.8,30.27,NNW,327,0.0,0.0,83,0.00,,BKN250,0.01,VWS V14.01,2013-06-24 00:56:00,
2013-06-23 21:02:00,77.0,71.8,30.27,NNW,327,0.0,0.0,84,0.00,,BKN250,0.01,VWS V14.01,2013-06-24 01:02:00,
2013-06-23 21:08:00,76.8,71.6,30.27,NNW,327,0.0,1.0,84,0.00,,BKN250,0.01,VWS V14.01,2013-06-24 01:08:00,
2013-06-23 21:14:00,76.8,71.6,30.27,NNW,328,0.0,0.0,84,0.00,,BKN250,0.01,VWS V14.01,2013-06-24 01:14:00,
2013-06-23 21:20:00,76.7,71.9,30.28,NNW,328,0.0,0.0,85,0.00,,BKN250,0.01,VWS V14.01,2013-06-24 01:20:00,
2013-06-23 21:26:00,76.5,71.7,30.28,NNW,328,0.0,1.0,85,0.00,,BKN250,0.01,VWS V14.01,2013-06-24 01:26:00,
2013-06-23 21:32:00,76.5,72.0,30.28,NNW,328,0.0,0.0,86,0.00,,BKN250,0.01,VWS V14.01,2013-06-24 01:32:00,
2013-06-23 21:38:00,76.3,71.8,30.28,NNW,328,0.0,0.0,86,0.00,,BKN250,0.01,VWS V14.01,2013-06-24 01:38:00,
2013-06-23 21:44:00,76.1,71.9,30.28,NNW,328,0.0,0.0,87,0.00,,BKN250,0.01,VWS V14.01,2013-06-24 01:44:00,
2013-06-23 21:49:00,76.1,72.3,30.28,NNW,328,0.0,0.0,88,0.00,,BKN250,0.01,VWS V14.01,2013-06-24 01:49:00,
2013-06-23 21:56:00,76.0,72.5,30.28,NNW,328,0.0,0.0,89,0.00,,BKN250,0.01,VWS V14.01,2013-06-24 01:56:00,
2013-06-23 22:02:00,75.8,72.3,30.27,NNW,328,0.0,0.0,89,0.00,,BKN250,0.01,VWS V14.01,2013-06-24 02:02:00,
2013-06-23 22:08:00,75.6,72.5,30.27,NNW,328,0.0,0.0,90,0.00,,BKN250,0.01,VWS V14.01,2013-06-24 02:08:00,
2013-06-23 22:14:00,75.4,72.3,30.28,NNW,328,0.0,0.0,90,0.00,,BKN250,0.01,VWS V14.01,2013-06-24 02:14:00,
2013-06-23 22:20:00,75.4,72.6,30.28,NNW,328,0.0,0.0,91,0.00,,BKN250,0.01,VWS V14.01,2013-06-24 02:20:00,
2013-06-23 22:26:00,75.3,72.5,30.28,NNW,328,0.0,0.0,91,0.00,,BKN250,0.01,VWS V14.01,2013-06-24 02:26:00,
2013-06-23 22:32:00,75.1,72.6,30.29,NNW,328,0.0,0.0,92,0.00,,BKN250,0.01,VWS V14.01,2013-06-24 02:32:00,
2013-06-23 22:38:00,74.9,72.4,30.29,NNW,328,0.0,0.0,92,0.00,,BKN250,0.01,VWS V14.01,2013-06-24 02:38:00,
2013-06-23 22:44:00,74.9,72.4,30.29,NNW,328,0.0,0.0,92,0.00,,BKN250,0.01,VWS V14.01,2013-06-24 02:44:00,
2013-06-23 22:50:00,74.7,72.6,30.29,NNW,328,0.0,0.0,93,0.00,,BKN250,0.01,VWS V14.01,2013-06-24 02:50:00,
2013-06-23 22:55:00,74.7,72.6,30.29,NNW,328,0.0,0.0,93,0.00,,BKN250,0.01,VWS V14.01,2013-06-24 02:55:00,
2013-06-23 23:01:00,74.6,72.4,30.29,NNW,328,0.0,0.0,93,0.00,,BKN250,0.01,VWS V14.01,2013-06-24 03:01:00,
2013-06-23 23:07:00,74.4,72.2,30.29,NNW,328,0.0,0.0,93,0.00,,BKN250,0.01,VWS V14.01,2013-06-24 03:07:00,
2013-06-23 23:13:00,74.2,72.1,30.29,NNW,328,0.0,0.0,93,0.00,,BKN250,0.01,VWS V14.01,2013-06-24 03:13:00,
2013-06-23 23:19:00,74.2,72.1,30.28,NNW,328,0.0,0.0,93,0.00,,BKN250,0.01,VWS V14.01,2013-06-24 03:19:00,
2013-06-23 23:25:00,74.0,71.8,30.28,NNW,328,0.0,1.0,93,0.00,,BKN250,0.01,VWS V14.01,2013-06-24 03:25:00,
2013-06-23 23:31:00,74.0,71.8,30.28,NNW,328,0.0,0.0,93,0.00,,BKN250,0.01,VWS V14.01,2013-06-24 03:31:00,
2013-06-23 23:37:00,73.9,72.1,30.28,NNW,328,0.0,0.0,94,0.00,,BKN250,0.01,VWS V14.01,2013-06-24 03:37:00,
2013-06-23 23:43:00,73.9,72.1,30.28,NNW,328,0.0,0.0,94,0.00,,BKN250,0.01,VWS V14.01,2013-06-24 03:43:00,
2013-06-23 23:49:00,73.7,71.9,30.29,NNW,328,0.0,0.0,94,0.00,,BKN250,0.01,VWS V14.01,2013-06-24 03:49:00,
2013-06-23 23:55:00,73.7,71.9,30.29,NNW,328,0.0,0.0,94,0.00,,BKN250,0.01,VWS V14.01,2013-06-24 03:55:00,